Bagotville, Canada
Current Conditions -  °F | °C
As of 4:00 AM on Thursday 18 Dec 2014 (Local Time) from CYBG Reporting Station
Light Snow Light Snow  
Wind Chill: 27°   Ceiling: 3000
Heat Index: 27°   Visibility: 4mi
Dew Point: 25°   Wind: 3mph
Humidity: 93%   Direction: 340°NNW
Pressure: 29.8"   Gusts: NA
Location:  48.34°N, 71°W
Report Text: CYBG 180900Z 34003KT 4SM -SN SCT003 OVC030 M03/M04 A2980 RMK SF3SC5 SLP101
Loading
Personal Weather Stations






























Interactive Weather Map New forecast layout! Learn more

10-Day Weather Forecast

Advertisements
Track Severe Weather on mobile